Todos
Gunnedah Airport (Gunnedah, New South Wales) GUH Condiciones meteorológicas
|
Gunnedah, New South Wales (GUH / YGDH)
Cielo despejado
Vientos suaves |
|
13 °C |
There is no TAF data available at GUH or any nearby airports.
Historial METAR GUH reciente
| Date | Time (AEST) | Flight Rules | Wind Dir. | Speed | Type | Height AGL (ft) | Visibility | Temp (°C) | Temp (°F) | Dew Point (°C) | Dew Point (°F) | Rel. Humid. | Pressure | Density Altitude | Remarks |
|---|---|---|---|---|---|---|---|---|---|---|---|---|---|---|---|
| 04-may | 12:00AM | n/a | 140° | 6 kt | Missing | 13° | 55° | 7° | 44° | 67% | 1018 mb | 481 ft | |||
| 03-may | 11:00PM | n/a | 190° | 4 kt | Missing | 13° | 55° | 7° | 44° | 67% | 1019 mb | 452 ft | |||
| 03-may | 10:00PM | n/a | 310° | 2 kt | Missing | 13° | 55° | 6° | 42° | 62% | 1019 mb | 452 ft | |||
| 03-may | 09:00PM | n/a | 80° | 4 kt | Missing | 14° | 57° | 7° | 44° | 63% | 1018 mb | 601 ft | |||
| 03-may | 08:00PM | n/a | 50° | 3 kt | Missing | 15° | 59° | 7° | 44° | 59% | 1018 mb | 721 ft | |||
| 03-may | 07:00PM | n/a | 110° | 3 kt | Missing | 16° | 60° | 6° | 42° | 51% | 1017 mb | 871 ft | |||
| 03-may | 06:00PM | n/a | 120° | 3 kt | Missing | 19° | 66° | 6° | 42° | 43% | 1017 mb | 1.231 ft | |||
| 03-may | 05:00PM | n/a | 120° | 5 kt | Missing | 24° | 75° | 6° | 42° | 31% | 1017 mb | 1.831 ft | |||
| 03-may | 04:00PM | n/a | 60° | 2 kt | Missing | 27° | 80° | 7° | 44° | 28% | 1017 mb | 2.191 ft | |||
| 03-may | 03:00PM | n/a | 50° | 5 kt | Missing | 27° | 80° | 8° | 46° | 30% | 1017 mb | 2.191 ft | |||
| 03-may | 02:00PM | n/a | 120° | 5 kt | Missing | 28° | 82° | 9° | 48° | 30% | 1018 mb | 2.281 ft | |||
| 03-may | 01:00PM | n/a | 100° | 7 kt | Missing | 26° | 78° | 8° | 46° | 32% | 1019 mb | 2.012 ft | |||
| 03-may | 12:00PM | n/a | 90° | 9 kt | Missing | 26° | 78° | 8° | 46° | 32% | 1020 mb | 1.982 ft | |||
| 03-may | 11:00AM | n/a | 50° | 6 kt | Missing | 25° | 77° | 9° | 48° | 36% | 1021 mb | 1.833 ft | Wind gusting to 16 KT | ||
| 03-may | 10:00AM | n/a | 90° | 8 kt | Missing | 23° | 73° | 10° | 50° | 44% | 1022 mb | 1.563 ft | |||
| 03-may | 09:00AM | n/a | 100° | 10 kt | Missing | 21° | 69° | 10° | 50° | 49% | 1022 mb | 1.323 ft | |||
| 03-may | 08:00AM | n/a | 130° | 8 kt | Missing | 18° | 64° | 10° | 50° | 59% | 1022 mb | 963 ft | |||
| 03-may | 07:00AM | n/a | 120° | 8 kt | Missing | 16° | 60° | 10° | 50° | 68% | 1021 mb | 753 ft | |||
| 03-may | 06:00AM | n/a | 120° | 7 kt | Missing | 16° | 60° | 10° | 50° | 68% | 1021 mb | 753 ft | |||
| 03-may | 05:00AM | n/a | 120° | 7 kt | Missing | 16° | 60° | 9° | 48° | 63% | 1021 mb | 753 ft | |||
| 03-may | 04:00AM | n/a | 110° | 9 kt | Missing | 17° | 62° | 9° | 48° | 59% | 1020 mb | 902 ft | |||
| 03-may | 03:00AM | n/a | 120° | 8 kt | Missing | 18° | 64° | 9° | 48° | 56% | 1021 mb | 993 ft | |||
| 03-may | 02:00AM | n/a | 120° | 5 kt | Missing | 17° | 62° | 9° | 48° | 59% | 1021 mb | 873 ft | |||
| 03-may | 01:00AM | n/a | 100° | 4 kt | Missing | 18° | 64° | 10° | 50° | 59% | 1021 mb | 993 ft |
Entrar
| Tu navegador no está contemplado. eleva la categoría de tu navegador |
